sensor_id;sensor_type;location;lat;lon;timestamp;temperature;humidity
30379;DHT22;17168;49.164;9.060;2023-06-22T00:01:14;22.90;93.10
30379;DHT22;17168;49.164;9.060;2023-06-22T00:03:47;22.90;93.10
30379;DHT22;17168;49.164;9.060;2023-06-22T00:06:23;22.90;93.00
30379;DHT22;17168;49.164;9.060;2023-06-22T00:08:55;22.90;93.10
30379;DHT22;17168;49.164;9.060;2023-06-22T00:11:27;22.80;93.30
30379;DHT22;17168;49.164;9.060;2023-06-22T00:14:00;22.80;93.60
30379;DHT22;17168;49.164;9.060;2023-06-22T00:16:32;22.70;93.80
30379;DHT22;17168;49.164;9.060;2023-06-22T00:19:04;22.70;94.00
30379;DHT22;17168;49.164;9.060;2023-06-22T00:21:39;22.60;94.10
30379;DHT22;17168;49.164;9.060;2023-06-22T00:24:12;22.60;94.10
30379;DHT22;17168;49.164;9.060;2023-06-22T00:26:44;22.60;94.50
30379;DHT22;17168;49.164;9.060;2023-06-22T00:29:16;22.50;94.70
30379;DHT22;17168;49.164;9.060;2023-06-22T00:31:48;22.50;94.60
30379;DHT22;17168;49.164;9.060;2023-06-22T00:34:21;22.50;94.60
30379;DHT22;17168;49.164;9.060;2023-06-22T00:36:55;22.50;94.60
30379;DHT22;17168;49.164;9.060;2023-06-22T00:39:28;22.50;94.70
30379;DHT22;17168;49.164;9.060;2023-06-22T00:42:00;22.50;94.90
30379;DHT22;17168;49.164;9.060;2023-06-22T00:44:32;22.50;94.90
30379;DHT22;17168;49.164;9.060;2023-06-22T00:47:05;22.40;94.80
30379;DHT22;17168;49.164;9.060;2023-06-22T00:49:38;22.40;94.80
30379;DHT22;17168;49.164;9.060;2023-06-22T00:52:13;22.40;94.80
30379;DHT22;17168;49.164;9.060;2023-06-22T00:54:46;22.40;94.80
30379;DHT22;17168;49.164;9.060;2023-06-22T00:57:19;22.40;94.90
30379;DHT22;17168;49.164;9.060;2023-06-22T00:59:52;22.30;94.90
30379;DHT22;17168;49.164;9.060;2023-06-22T01:02:24;22.30;95.90
30379;DHT22;17168;49.164;9.060;2023-06-22T01:04:56;22.30;97.10
30379;DHT22;17168;49.164;9.060;2023-06-22T01:07:35;22.10;98.40
30379;DHT22;17168;49.164;9.060;2023-06-22T01:10:16;22.10;99.00
30379;DHT22;17168;49.164;9.060;2023-06-22T01:12:54;22.00;99.20
30379;DHT22;17168;49.164;9.060;2023-06-22T01:15:32;21.90;99.80
30379;DHT22;17168;49.164;9.060;2023-06-22T01:18:05;21.90;99.90
30379;DHT22;17168;49.164;9.060;2023-06-22T01:20:39;21.90;99.90
30379;DHT22;17168;49.164;9.060;2023-06-22T01:23:29;21.90;99.90
30379;DHT22;17168;49.164;9.060;2023-06-22T01:26:08;21.90;99.90
30379;DHT22;17168;49.164;9.060;2023-06-22T01:28:49;21.90;99.90
30379;DHT22;17168;49.164;9.060;2023-06-22T01:31:24;21.90;99.90
30379;DHT22;17168;49.164;9.060;2023-06-22T01:34:00;21.90;99.90
30379;DHT22;17168;49.164;9.060;2023-06-22T01:36:33;21.80;99.90
30379;DHT22;17168;49.164;9.060;2023-06-22T01:39:07;21.80;99.90
30379;DHT22;17168;49.164;9.060;2023-06-22T01:41:42;21.90;99.90
30379;DHT22;17168;49.164;9.060;2023-06-22T01:44:18;21.80;99.90
30379;DHT22;17168;49.164;9.060;2023-06-22T01:46:51;21.80;99.90
30379;DHT22;17168;49.164;9.060;2023-06-22T01:49:25;21.80;99.90
30379;DHT22;17168;49.164;9.060;2023-06-22T01:51:57;21.80;99.90
30379;DHT22;17168;49.164;9.060;2023-06-22T01:54:30;21.70;99.90
30379;DHT22;17168;49.164;9.060;2023-06-22T01:57:03;21.80;99.90
30379;DHT22;17168;49.164;9.060;2023-06-22T01:59:46;21.70;99.90
30379;DHT22;17168;49.164;9.060;2023-06-22T02:02:20;21.70;99.90
30379;DHT22;17168;49.164;9.060;2023-06-22T02:05:03;21.70;99.90
30379;DHT22;17168;49.164;9.060;2023-06-22T02:07:41;21.70;99.90
30379;DHT22;17168;49.164;9.060;2023-06-22T02:10:20;21.70;99.90
30379;DHT22;17168;49.164;9.060;2023-06-22T02:12:54;21.70;99.90
30379;DHT22;17168;49.164;9.060;2023-06-22T02:15:29;21.60;99.90
30379;DHT22;17168;49.164;9.060;2023-06-22T02:18:02;21.70;99.90
30379;DHT22;17168;49.164;9.060;2023-06-22T02:20:36;21.60;99.90
30379;DHT22;17168;49.164;9.060;2023-06-22T02:23:09;21.60;99.90
30379;DHT22;17168;49.164;9.060;2023-06-22T02:25:41;21.60;99.90
30379;DHT22;17168;49.164;9.060;2023-06-22T02:28:16;21.50;99.90
30379;DHT22;17168;49.164;9.060;2023-06-22T02:30:51;21.50;99.90
30379;DHT22;17168;49.164;9.060;2023-06-22T02:33:23;21.50;99.90
30379;DHT22;17168;49.164;9.060;2023-06-22T02:35:55;21.50;99.90
30379;DHT22;17168;49.164;9.060;2023-06-22T02:38:30;21.40;99.90
30379;DHT22;17168;49.164;9.060;2023-06-22T02:41:05;21.40;99.90
30379;DHT22;17168;49.164;9.060;2023-06-22T02:43:38;21.40;99.90
30379;DHT22;17168;49.164;9.060;2023-06-22T02:46:13;21.40;99.90
30379;DHT22;17168;49.164;9.060;2023-06-22T02:48:46;21.40;99.90
30379;DHT22;17168;49.164;9.060;2023-06-22T02:51:18;21.40;99.90
30379;DHT22;17168;49.164;9.060;2023-06-22T02:53:50;21.30;99.90
30379;DHT22;17168;49.164;9.060;2023-06-22T02:56:29;21.30;99.90
30379;DHT22;17168;49.164;9.060;2023-06-22T02:59:02;21.30;99.90
30379;DHT22;17168;49.164;9.060;2023-06-22T03:01:37;21.20;99.90
30379;DHT22;17168;49.164;9.060;2023-06-22T03:04:13;21.20;99.90
30379;DHT22;17168;49.164;9.060;2023-06-22T03:06:45;21.10;99.90
30379;DHT22;17168;49.164;9.060;2023-06-22T03:09:23;21.10;99.90
30379;DHT22;17168;49.164;9.060;2023-06-22T03:11:55;21.10;99.90
30379;DHT22;17168;49.164;9.060;2023-06-22T03:14:27;21.10;99.90
30379;DHT22;17168;49.164;9.060;2023-06-22T03:17:03;21.10;99.90
30379;DHT22;17168;49.164;9.060;2023-06-22T03:19:35;21.10;99.90
30379;DHT22;17168;49.164;9.060;2023-06-22T03:22:08;21.00;99.90
30379;DHT22;17168;49.164;9.060;2023-06-22T03:24:41;21.00;99.90
30379;DHT22;17168;49.164;9.060;2023-06-22T03:27:14;21.00;99.90
30379;DHT22;17168;49.164;9.060;2023-06-22T03:29:46;20.90;99.90
30379;DHT22;17168;49.164;9.060;2023-06-22T03:32:20;20.90;99.90
30379;DHT22;17168;49.164;9.060;2023-06-22T03:34:53;20.90;99.90
30379;DHT22;17168;49.164;9.060;2023-06-22T03:37:25;20.90;99.90
30379;DHT22;17168;49.164;9.060;2023-06-22T03:39:57;20.80;99.90
30379;DHT22;17168;49.164;9.060;2023-06-22T03:42:30;20.80;99.90
30379;DHT22;17168;49.164;9.060;2023-06-22T03:45:03;20.80;99.90
30379;DHT22;17168;49.164;9.060;2023-06-22T03:47:38;20.70;99.90
30379;DHT22;17168;49.164;9.060;2023-06-22T03:50:10;20.70;99.90
30379;DHT22;17168;49.164;9.060;2023-06-22T03:52:42;20.70;99.90
30379;DHT22;17168;49.164;9.060;2023-06-22T03:55:15;20.70;99.90
30379;DHT22;17168;49.164;9.060;2023-06-22T03:57:47;20.60;99.90
30379;DHT22;17168;49.164;9.060;2023-06-22T04:00:19;20.60;99.90
30379;DHT22;17168;49.164;9.060;2023-06-22T04:02:54;20.60;99.90
30379;DHT22;17168;49.164;9.060;2023-06-22T04:05:26;20.60;99.90
30379;DHT22;17168;49.164;9.060;2023-06-22T04:07:58;20.60;99.90
30379;DHT22;17168;49.164;9.060;2023-06-22T04:10:31;20.60;99.90
30379;DHT22;17168;49.164;9.060;2023-06-22T04:13:03;20.60;99.90
30379;DHT22;17168;49.164;9.060;2023-06-22T04:15:35;20.60;99.90
30379;DHT22;17168;49.164;9.060;2023-06-22T04:18:10;20.60;99.90
30379;DHT22;17168;49.164;9.060;2023-06-22T04:20:42;20.60;99.90
30379;DHT22;17168;49.164;9.060;2023-06-22T04:23:19;20.60;99.90
30379;DHT22;17168;49.164;9.060;2023-06-22T04:25:51;20.50;99.90
30379;DHT22;17168;49.164;9.060;2023-06-22T04:28:23;20.60;99.90
30379;DHT22;17168;49.164;9.060;2023-06-22T04:30:58;20.50;99.90
30379;DHT22;17168;49.164;9.060;2023-06-22T04:33:37;20.50;99.90
30379;DHT22;17168;49.164;9.060;2023-06-22T04:36:12;20.50;99.90
30379;DHT22;17168;49.164;9.060;2023-06-22T04:38:45;20.60;99.90
30379;DHT22;17168;49.164;9.060;2023-06-22T04:41:17;20.60;99.90
30379;DHT22;17168;49.164;9.060;2023-06-22T04:43:56;20.60;99.90
30379;DHT22;17168;49.164;9.060;2023-06-22T04:46:32;20.60;99.90
30379;DHT22;17168;49.164;9.060;2023-06-22T04:49:09;20.70;99.90
30379;DHT22;17168;49.164;9.060;2023-06-22T04:51:42;20.70;99.90
30379;DHT22;17168;49.164;9.060;2023-06-22T04:54:14;20.80;99.90
30379;DHT22;17168;49.164;9.060;2023-06-22T04:56:47;20.80;99.90
30379;DHT22;17168;49.164;9.060;2023-06-22T04:59:20;20.90;99.90
30379;DHT22;17168;49.164;9.060;2023-06-22T05:01:52;20.90;99.90
30379;DHT22;17168;49.164;9.060;2023-06-22T05:04:28;21.00;99.90
30379;DHT22;17168;49.164;9.060;2023-06-22T05:07:04;21.00;99.90
30379;DHT22;17168;49.164;9.060;2023-06-22T05:09:36;21.00;99.90
30379;DHT22;17168;49.164;9.060;2023-06-22T05:12:09;21.10;99.90
30379;DHT22;17168;49.164;9.060;2023-06-22T05:14:42;21.20;99.90
30379;DHT22;17168;49.164;9.060;2023-06-22T05:17:14;21.20;99.90
30379;DHT22;17168;49.164;9.060;2023-06-22T05:19:53;21.20;99.90
30379;DHT22;17168;49.164;9.060;2023-06-22T05:22:26;21.30;99.90
30379;DHT22;17168;49.164;9.060;2023-06-22T05:24:58;21.30;99.90
30379;DHT22;17168;49.164;9.060;2023-06-22T05:27:31;21.40;99.90
30379;DHT22;17168;49.164;9.060;2023-06-22T05:30:04;21.40;99.90
30379;DHT22;17168;49.164;9.060;2023-06-22T05:32:36;21.50;99.90
30379;DHT22;17168;49.164;9.060;2023-06-22T05:35:11;21.50;99.90
30379;DHT22;17168;49.164;9.060;2023-06-22T05:37:43;21.60;99.90
30379;DHT22;17168;49.164;9.060;2023-06-22T05:40:16;21.60;99.90
30379;DHT22;17168;49.164;9.060;2023-06-22T05:42:48;21.70;99.90
30379;DHT22;17168;49.164;9.060;2023-06-22T05:45:20;21.70;99.90
30379;DHT22;17168;49.164;9.060;2023-06-22T05:47:52;21.80;99.90
30379;DHT22;17168;49.164;9.060;2023-06-22T05:50:27;21.90;99.90
30379;DHT22;17168;49.164;9.060;2023-06-22T05:53:00;21.90;99.90
30379;DHT22;17168;49.164;9.060;2023-06-22T05:55:32;22.00;99.90
30379;DHT22;17168;49.164;9.060;2023-06-22T05:58:06;22.10;99.90
30379;DHT22;17168;49.164;9.060;2023-06-22T06:00:38;22.10;99.90
30379;DHT22;17168;49.164;9.060;2023-06-22T06:03:11;22.20;99.90
30379;DHT22;17168;49.164;9.060;2023-06-22T06:05:49;22.20;99.90
30379;DHT22;17168;49.164;9.060;2023-06-22T06:08:21;22.30;99.90
30379;DHT22;17168;49.164;9.060;2023-06-22T06:10:53;22.40;99.90
30379;DHT22;17168;49.164;9.060;2023-06-22T06:13:26;22.40;99.90
30379;DHT22;17168;49.164;9.060;2023-06-22T06:15:59;22.50;99.90
30379;DHT22;17168;49.164;9.060;2023-06-22T06:18:31;22.60;99.90
30379;DHT22;17168;49.164;9.060;2023-06-22T06:21:06;22.60;99.90
30379;DHT22;17168;49.164;9.060;2023-06-22T06:23:38;22.70;99.90
30379;DHT22;17168;49.164;9.060;2023-06-22T06:26:13;22.80;99.90
30379;DHT22;17168;49.164;9.060;2023-06-22T06:28:48;22.80;99.90
30379;DHT22;17168;49.164;9.060;2023-06-22T06:31:20;22.90;99.90
30379;DHT22;17168;49.164;9.060;2023-06-22T06:33:52;22.90;99.90
30379;DHT22;17168;49.164;9.060;2023-06-22T06:36:28;23.00;99.90
30379;DHT22;17168;49.164;9.060;2023-06-22T06:39:00;23.10;99.90
30379;DHT22;17168;49.164;9.060;2023-06-22T06:41:33;23.10;99.90
30379;DHT22;17168;49.164;9.060;2023-06-22T06:44:05;23.20;99.90
30379;DHT22;17168;49.164;9.060;2023-06-22T06:46:37;23.30;99.90
30379;DHT22;17168;49.164;9.060;2023-06-22T06:49:10;23.40;99.90
30379;DHT22;17168;49.164;9.060;2023-06-22T06:51:44;23.40;99.90
30379;DHT22;17168;49.164;9.060;2023-06-22T06:54:17;23.50;99.90
30379;DHT22;17168;49.164;9.060;2023-06-22T06:56:53;23.50;99.90
30379;DHT22;17168;49.164;9.060;2023-06-22T06:59:25;23.60;99.90
30379;DHT22;17168;49.164;9.060;2023-06-22T07:01:57;23.70;99.90
30379;DHT22;17168;49.164;9.060;2023-06-22T07:04:30;23.70;99.90
30379;DHT22;17168;49.164;9.060;2023-06-22T07:07:05;23.90;99.90
30379;DHT22;17168;49.164;9.060;2023-06-22T07:09:37;23.90;99.90
30379;DHT22;17168;49.164;9.060;2023-06-22T07:12:10;24.00;99.90
30379;DHT22;17168;49.164;9.060;2023-06-22T07:14:42;24.10;99.90
30379;DHT22;17168;49.164;9.060;2023-06-22T07:17:14;24.10;99.90
30379;DHT22;17168;49.164;9.060;2023-06-22T07:19:46;24.20;99.90
30379;DHT22;17168;49.164;9.060;2023-06-22T07:22:21;24.30;99.90
30379;DHT22;17168;49.164;9.060;2023-06-22T07:24:53;24.30;99.70
30379;DHT22;17168;49.164;9.060;2023-06-22T07:27:26;24.40;99.50
30379;DHT22;17168;49.164;9.060;2023-06-22T07:29:58;24.50;98.90
30379;DHT22;17168;49.164;9.060;2023-06-22T07:32:32;24.60;98.30
30379;DHT22;17168;49.164;9.060;2023-06-22T07:35:05;24.60;97.70
30379;DHT22;17168;49.164;9.060;2023-06-22T07:37:41;24.70;97.30
30379;DHT22;17168;49.164;9.060;2023-06-22T07:40:13;24.80;96.90
30379;DHT22;17168;49.164;9.060;2023-06-22T07:42:46;24.90;96.10
30379;DHT22;17168;49.164;9.060;2023-06-22T07:45:20;25.00;95.60
30379;DHT22;17168;49.164;9.060;2023-06-22T07:47:52;25.10;94.50
30379;DHT22;17168;49.164;9.060;2023-06-22T07:50:24;25.20;93.90
30379;DHT22;17168;49.164;9.060;2023-06-22T07:52:59;25.30;93.10
30379;DHT22;17168;49.164;9.060;2023-06-22T07:55:31;25.40;92.40
30379;DHT22;17168;49.164;9.060;2023-06-22T07:58:04;25.50;91.50
30379;DHT22;17168;49.164;9.060;2023-06-22T08:00:36;25.50;91.30
30379;DHT22;17168;49.164;9.060;2023-06-22T08:03:08;25.60;91.00
30379;DHT22;17168;49.164;9.060;2023-06-22T08:05:41;25.70;90.20
30379;DHT22;17168;49.164;9.060;2023-06-22T08:08:15;25.70;89.50
30379;DHT22;17168;49.164;9.060;2023-06-22T08:10:48;25.80;88.40
30379;DHT22;17168;49.164;9.060;2023-06-22T08:13:20;25.90;87.40
30379;DHT22;17168;49.164;9.060;2023-06-22T08:15:52;26.00;86.70
30379;DHT22;17168;49.164;9.060;2023-06-22T08:18:24;26.00;85.40
30379;DHT22;17168;49.164;9.060;2023-06-22T08:20:57;26.10;84.50
30379;DHT22;17168;49.164;9.060;2023-06-22T08:23:31;26.20;84.30
30379;DHT22;17168;49.164;9.060;2023-06-22T08:26:04;26.30;83.60
30379;DHT22;17168;49.164;9.060;2023-06-22T08:28:36;26.30;82.90
30379;DHT22;17168;49.164;9.060;2023-06-22T08:31:08;26.40;82.80
30379;DHT22;17168;49.164;9.060;2023-06-22T08:33:40;26.50;82.00
30379;DHT22;17168;49.164;9.060;2023-06-22T08:36:20;26.50;81.50
30379;DHT22;17168;49.164;9.060;2023-06-22T08:38:55;26.60;81.10
30379;DHT22;17168;49.164;9.060;2023-06-22T08:41:34;26.70;80.60
30379;DHT22;17168;49.164;9.060;2023-06-22T08:44:07;26.80;80.60
30379;DHT22;17168;49.164;9.060;2023-06-22T08:46:39;26.90;80.40
30379;DHT22;17168;49.164;9.060;2023-06-22T08:49:12;27.00;80.10
30379;DHT22;17168;49.164;9.060;2023-06-22T08:51:44;27.10;79.50
30379;DHT22;17168;49.164;9.060;2023-06-22T08:54:21;27.10;79.00
30379;DHT22;17168;49.164;9.060;2023-06-22T08:56:53;27.30;78.00
30379;DHT22;17168;49.164;9.060;2023-06-22T08:59:25;27.40;76.60
30379;DHT22;17168;49.164;9.060;2023-06-22T09:01:57;27.50;75.10
30379;DHT22;17168;49.164;9.060;2023-06-22T09:04:29;27.60;75.30
30379;DHT22;17168;49.164;9.060;2023-06-22T09:07:06;27.70;75.50
30379;DHT22;17168;49.164;9.060;2023-06-22T09:09:41;27.80;75.40
30379;DHT22;17168;49.164;9.060;2023-06-22T09:12:13;27.90;74.50
30379;DHT22;17168;49.164;9.060;2023-06-22T09:14:45;27.90;73.70
30379;DHT22;17168;49.164;9.060;2023-06-22T09:17:18;28.00;71.80
30379;DHT22;17168;49.164;9.060;2023-06-22T09:19:50;28.00;71.70
30379;DHT22;17168;49.164;9.060;2023-06-22T09:22:23;28.10;71.40
30379;DHT22;17168;49.164;9.060;2023-06-22T09:25:04;28.10;71.40
30379;DHT22;17168;49.164;9.060;2023-06-22T09:27:38;28.20;71.40
30379;DHT22;17168;49.164;9.060;2023-06-22T09:30:11;28.30;70.90
30379;DHT22;17168;49.164;9.060;2023-06-22T09:32:43;28.40;70.90
30379;DHT22;17168;49.164;9.060;2023-06-22T09:35:16;28.50;70.80
30379;DHT22;17168;49.164;9.060;2023-06-22T09:37:48;28.60;71.00
30379;DHT22;17168;49.164;9.060;2023-06-22T09:40:23;28.60;70.00
30379;DHT22;17168;49.164;9.060;2023-06-22T09:42:55;28.70;69.70
30379;DHT22;17168;49.164;9.060;2023-06-22T09:45:27;28.70;69.50
30379;DHT22;17168;49.164;9.060;2023-06-22T09:47:59;28.70;69.50
30379;DHT22;17168;49.164;9.060;2023-06-22T09:50:32;28.80;69.20
30379;DHT22;17168;49.164;9.060;2023-06-22T09:53:04;28.80;68.30
30379;DHT22;17168;49.164;9.060;2023-06-22T09:55:39;28.90;68.10
30379;DHT22;17168;49.164;9.060;2023-06-22T09:58:11;29.00;68.30
30379;DHT22;17168;49.164;9.060;2023-06-22T10:00:43;29.10;67.80
30379;DHT22;17168;49.164;9.060;2023-06-22T10:03:16;29.10;67.40
30379;DHT22;17168;49.164;9.060;2023-06-22T10:05:48;29.20;67.50
30379;DHT22;17168;49.164;9.060;2023-06-22T10:08:20;29.20;67.00
30379;DHT22;17168;49.164;9.060;2023-06-22T10:10:55;29.40;67.10
30379;DHT22;17168;49.164;9.060;2023-06-22T10:13:27;29.50;66.80
30379;DHT22;17168;49.164;9.060;2023-06-22T10:15:59;29.50;66.20
30379;DHT22;17168;49.164;9.060;2023-06-22T10:18:31;29.60;66.10
30379;DHT22;17168;49.164;9.060;2023-06-22T10:21:04;29.70;65.80
30379;DHT22;17168;49.164;9.060;2023-06-22T10:23:36;29.80;65.90
30379;DHT22;17168;49.164;9.060;2023-06-22T10:26:11;29.90;65.70
30379;DHT22;17168;49.164;9.060;2023-06-22T10:28:43;30.00;65.30
30379;DHT22;17168;49.164;9.060;2023-06-22T10:31:15;30.10;65.30
30379;DHT22;17168;49.164;9.060;2023-06-22T10:33:49;30.20;64.70
30379;DHT22;17168;49.164;9.060;2023-06-22T10:36:22;30.30;64.30
30379;DHT22;17168;49.164;9.060;2023-06-22T10:38:54;30.40;64.30
30379;DHT22;17168;49.164;9.060;2023-06-22T10:41:30;30.50;64.30
30379;DHT22;17168;49.164;9.060;2023-06-22T10:44:03;30.60;63.90
30379;DHT22;17168;49.164;9.060;2023-06-22T10:46:35;30.60;63.40
30379;DHT22;17168;49.164;9.060;2023-06-22T10:49:07;30.70;63.50
30379;DHT22;17168;49.164;9.060;2023-06-22T10:51:40;30.80;63.40
30379;DHT22;17168;49.164;9.060;2023-06-22T10:54:13;30.80;62.60
30379;DHT22;17168;49.164;9.060;2023-06-22T10:56:48;30.90;62.90
30379;DHT22;17168;49.164;9.060;2023-06-22T10:59:21;31.00;62.80
30379;DHT22;17168;49.164;9.060;2023-06-22T11:01:56;31.10;62.70
30379;DHT22;17168;49.164;9.060;2023-06-22T11:04:28;31.20;62.20
30379;DHT22;17168;49.164;9.060;2023-06-22T11:07:00;31.30;62.00
30379;DHT22;17168;49.164;9.060;2023-06-22T11:09:33;31.40;62.20
30379;DHT22;17168;49.164;9.060;2023-06-22T11:12:10;31.50;61.80
30379;DHT22;17168;49.164;9.060;2023-06-22T11:14:43;31.50;61.30
30379;DHT22;17168;49.164;9.060;2023-06-22T11:17:15;31.60;60.90
30379;DHT22;17168;49.164;9.060;2023-06-22T11:19:47;31.60;60.80
30379;DHT22;17168;49.164;9.060;2023-06-22T11:22:19;31.60;60.50
30379;DHT22;17168;49.164;9.060;2023-06-22T11:24:51;31.70;60.40
30379;DHT22;17168;49.164;9.060;2023-06-22T11:27:26;31.70;60.20
30379;DHT22;17168;49.164;9.060;2023-06-22T11:29:58;31.80;60.00
30379;DHT22;17168;49.164;9.060;2023-06-22T11:32:30;31.80;59.70
30379;DHT22;17168;49.164;9.060;2023-06-22T11:35:04;31.90;59.70
30379;DHT22;17168;49.164;9.060;2023-06-22T11:37:36;32.00;59.70
30379;DHT22;17168;49.164;9.060;2023-06-22T11:40:09;32.10;59.60
30379;DHT22;17168;49.164;9.060;2023-06-22T11:42:44;32.20;59.30
30379;DHT22;17168;49.164;9.060;2023-06-22T11:45:17;32.30;59.10
30379;DHT22;17168;49.164;9.060;2023-06-22T11:47:50;32.40;58.90
30379;DHT22;17168;49.164;9.060;2023-06-22T11:50:23;32.50;58.60
30379;DHT22;17168;49.164;9.060;2023-06-22T11:52:55;32.50;58.30
30379;DHT22;17168;49.164;9.060;2023-06-22T11:55:27;32.60;58.60
30379;DHT22;17168;49.164;9.060;2023-06-22T11:58:02;32.70;58.30
30379;DHT22;17168;49.164;9.060;2023-06-22T12:00:35;32.70;58.00
30379;DHT22;17168;49.164;9.060;2023-06-22T12:03:21;32.70;57.80
30379;DHT22;17168;49.164;9.060;2023-06-22T12:05:53;32.70;57.50
30379;DHT22;17168;49.164;9.060;2023-06-22T12:08:26;32.70;58.30
30379;DHT22;17168;49.164;9.060;2023-06-22T12:10:58;32.70;57.80
30379;DHT22;17168;49.164;9.060;2023-06-22T12:13:33;32.70;57.90
30379;DHT22;17168;49.164;9.060;2023-06-22T12:16:05;32.60;58.00
30379;DHT22;17168;49.164;9.060;2023-06-22T12:18:37;32.60;57.90
30379;DHT22;17168;49.164;9.060;2023-06-22T12:21:09;32.50;57.90
30379;DHT22;17168;49.164;9.060;2023-06-22T12:23:42;32.50;58.00
30379;DHT22;17168;49.164;9.060;2023-06-22T12:26:14;32.40;57.90
30379;DHT22;17168;49.164;9.060;2023-06-22T12:28:50;32.40;58.10
30379;DHT22;17168;49.164;9.060;2023-06-22T12:31:23;32.20;57.80
30379;DHT22;17168;49.164;9.060;2023-06-22T12:33:55;32.20;58.20
30379;DHT22;17168;49.164;9.060;2023-06-22T12:36:28;32.00;59.10
30379;DHT22;17168;49.164;9.060;2023-06-22T12:39:00;32.00;59.60
30379;DHT22;17168;49.164;9.060;2023-06-22T12:41:32;31.90;60.40
30379;DHT22;17168;49.164;9.060;2023-06-22T12:44:07;31.80;60.80
30379;DHT22;17168;49.164;9.060;2023-06-22T12:46:39;31.80;60.80
30379;DHT22;17168;49.164;9.060;2023-06-22T12:49:11;31.70;60.90
30379;DHT22;17168;49.164;9.060;2023-06-22T12:51:44;31.80;61.30
30379;DHT22;17168;49.164;9.060;2023-06-22T12:54:16;32.00;61.10
30379;DHT22;17168;49.164;9.060;2023-06-22T12:56:50;32.10;61.10
30379;DHT22;17168;49.164;9.060;2023-06-22T12:59:26;32.40;60.80
30379;DHT22;17168;49.164;9.060;2023-06-22T13:01:59;32.60;60.00
30379;DHT22;17168;49.164;9.060;2023-06-22T13:04:31;32.80;59.10
30379;DHT22;17168;49.164;9.060;2023-06-22T13:07:04;32.90;58.20
30379;DHT22;17168;49.164;9.060;2023-06-22T13:09:51;33.00;58.30
30379;DHT22;17168;49.164;9.060;2023-06-22T13:12:24;33.20;58.10
30379;DHT22;17168;49.164;9.060;2023-06-22T13:14:59;33.30;58.00
30379;DHT22;17168;49.164;9.060;2023-06-22T13:17:31;33.40;57.10
30379;DHT22;17168;49.164;9.060;2023-06-22T13:20:04;33.50;56.60
30379;DHT22;17168;49.164;9.060;2023-06-22T13:22:37;33.40;56.20
30379;DHT22;17168;49.164;9.060;2023-06-22T13:25:12;33.30;56.40
30379;DHT22;17168;49.164;9.060;2023-06-22T13:27:45;33.20;56.60
30379;DHT22;17168;49.164;9.060;2023-06-22T13:30:20;33.10;57.00
30379;DHT22;17168;49.164;9.060;2023-06-22T13:32:52;33.10;57.50
30379;DHT22;17168;49.164;9.060;2023-06-22T13:35:24;33.10;57.50
30379;DHT22;17168;49.164;9.060;2023-06-22T13:37:57;33.10;57.50
30379;DHT22;17168;49.164;9.060;2023-06-22T13:40:29;33.10;57.20
30379;DHT22;17168;49.164;9.060;2023-06-22T13:43:01;33.10;57.70
30379;DHT22;17168;49.164;9.060;2023-06-22T13:45:36;33.10;57.70
30379;DHT22;17168;49.164;9.060;2023-06-22T13:48:08;33.30;58.50
30379;DHT22;17168;49.164;9.060;2023-06-22T13:50:40;33.60;59.30
30379;DHT22;17168;49.164;9.060;2023-06-22T13:53:13;34.00;58.60
30379;DHT22;17168;49.164;9.060;2023-06-22T13:55:45;34.40;57.70
30379;DHT22;17168;49.164;9.060;2023-06-22T13:58:17;34.80;56.80
30379;DHT22;17168;49.164;9.060;2023-06-22T14:00:54;35.20;56.00
30379;DHT22;17168;49.164;9.060;2023-06-22T14:03:27;35.50;55.30
30379;DHT22;17168;49.164;9.060;2023-06-22T14:06:00;36.00;54.30
30379;DHT22;17168;49.164;9.060;2023-06-22T14:08:32;36.40;53.20
30379;DHT22;17168;49.164;9.060;2023-06-22T14:11:24;36.80;51.60
30379;DHT22;17168;49.164;9.060;2023-06-22T14:13:58;37.20;51.30
30379;DHT22;17168;49.164;9.060;2023-06-22T14:16:33;37.40;51.40
30379;DHT22;17168;49.164;9.060;2023-06-22T14:19:05;37.80;50.00
30379;DHT22;17168;49.164;9.060;2023-06-22T14:21:37;37.90;49.80
30379;DHT22;17168;49.164;9.060;2023-06-22T14:24:10;38.20;50.00
30379;DHT22;17168;49.164;9.060;2023-06-22T14:26:42;38.40;49.50
30379;DHT22;17168;49.164;9.060;2023-06-22T14:29:14;38.50;48.60
30379;DHT22;17168;49.164;9.060;2023-06-22T14:31:49;38.40;48.10
30379;DHT22;17168;49.164;9.060;2023-06-22T14:34:21;38.40;48.50
30379;DHT22;17168;49.164;9.060;2023-06-22T14:36:54;38.20;48.60
30379;DHT22;17168;49.164;9.060;2023-06-22T14:39:26;38.10;47.90
30379;DHT22;17168;49.164;9.060;2023-06-22T14:41:58;37.80;48.90
30379;DHT22;17168;49.164;9.060;2023-06-22T14:44:30;37.50;49.30
30379;DHT22;17168;49.164;9.060;2023-06-22T14:47:06;37.20;49.10
30379;DHT22;17168;49.164;9.060;2023-06-22T14:49:38;36.90;49.50
30379;DHT22;17168;49.164;9.060;2023-06-22T14:52:10;36.50;50.20
30379;DHT22;17168;49.164;9.060;2023-06-22T14:54:43;36.20;49.70
30379;DHT22;17168;49.164;9.060;2023-06-22T14:57:15;35.80;51.00
30379;DHT22;17168;49.164;9.060;2023-06-22T14:59:50;35.50;51.80
30379;DHT22;17168;49.164;9.060;2023-06-22T15:02:24;35.20;52.20
30379;DHT22;17168;49.164;9.060;2023-06-22T15:04:57;34.90;53.20
30379;DHT22;17168;49.164;9.060;2023-06-22T15:07:29;34.60;53.90
30379;DHT22;17168;49.164;9.060;2023-06-22T15:10:01;34.30;54.60
30379;DHT22;17168;49.164;9.060;2023-06-22T15:12:33;34.10;55.30
30379;DHT22;17168;49.164;9.060;2023-06-22T15:15:07;33.90;55.60
30379;DHT22;17168;49.164;9.060;2023-06-22T15:17:41;33.70;55.90
30379;DHT22;17168;49.164;9.060;2023-06-22T15:20:14;33.60;55.70
30379;DHT22;17168;49.164;9.060;2023-06-22T15:22:46;33.50;56.20
30379;DHT22;17168;49.164;9.060;2023-06-22T15:25:19;33.50;57.00
30379;DHT22;17168;49.164;9.060;2023-06-22T15:27:51;33.50;57.50
30379;DHT22;17168;49.164;9.060;2023-06-22T15:30:23;33.60;57.70
30379;DHT22;17168;49.164;9.060;2023-06-22T15:32:59;33.70;56.40
30379;DHT22;17168;49.164;9.060;2023-06-22T15:35:32;33.70;55.60
30379;DHT22;17168;49.164;9.060;2023-06-22T15:38:04;33.90;55.50
30379;DHT22;17168;49.164;9.060;2023-06-22T15:40:38;33.90;55.30
30379;DHT22;17168;49.164;9.060;2023-06-22T15:43:11;34.00;55.50
30379;DHT22;17168;49.164;9.060;2023-06-22T15:45:43;33.90;54.20
30379;DHT22;17168;49.164;9.060;2023-06-22T15:48:18;33.90;55.40
30379;DHT22;17168;49.164;9.060;2023-06-22T15:50:50;33.70;54.50
30379;DHT22;17168;49.164;9.060;2023-06-22T15:53:23;33.60;55.10
30379;DHT22;17168;49.164;9.060;2023-06-22T15:55:55;33.50;55.60
30379;DHT22;17168;49.164;9.060;2023-06-22T15:58:27;33.40;55.70
30379;DHT22;17168;49.164;9.060;2023-06-22T16:00:59;33.30;56.40
30379;DHT22;17168;49.164;9.060;2023-06-22T16:03:35;33.30;56.60
30379;DHT22;17168;49.164;9.060;2023-06-22T16:06:07;33.20;57.10
30379;DHT22;17168;49.164;9.060;2023-06-22T16:08:39;33.20;56.90